Terminal Aerodrome Forecast
Issued by NWS Amarillo, TX

Home | Current Version | Previous Version | Text Only | Print | Product List | Glossary On
Versions: 1 2 3 4 5 6 7 8 9 10 11 12 13 14 15 16
530
FTUS44 KAMA 222322
TAFGUY
TAF
KGUY 222322Z 2300/2324 15018KT P6SM SCT200
     FM230900 16012KT 6SM BR SCT012
     FM231300 18013KT 5SM BR OVC008
     FM231700 19026G36KT P6SM SCT070=

USA.gov is the U.S. government's official web portal to all federal, state and local government web resources and services.